Time;durP1;ratioP1;P1;durP2;ratioP2;P2;SDS_P1;SDS_P2;PMS_P1;PMS_P2;Temp;Humidity;BMP_temperature;BMP_pressure;BME280_temperature;BME280_humidity;BME280_pressure;Samples;Min_cycle;Max_cycle;Signal;HPM_P1;HPM_P2
2023/03/25 00:01:32;;;;;;;3.75;1.20;;;10.60;99.90;;;;;;5047265;28;20045;-73
2023/03/25 00:03:59;;;;;;;4.38;1.20;;;10.60;99.90;;;;;;5044022;28;20017;-73
2023/03/25 00:06:27;;;;;;;7.88;1.00;;;10.60;99.90;;;;;;5047429;28;20448;-73
2023/03/25 00:08:53;;;;;;;5.28;1.08;;;10.60;99.90;;;;;;5044641;28;20017;-73
2023/03/25 00:11:19;;;;;;;5.72;0.95;;;10.60;99.90;;;;;;5047470;28;20489;-73
2023/03/25 00:13:44;;;;;;;6.53;1.92;;;10.60;99.90;;;;;;5039935;28;20096;-73
2023/03/25 00:16:10;;;;;;;6.90;1.45;;;10.60;99.90;;;;;;5034066;28;20033;-73
2023/03/25 00:18:36;;;;;;;5.00;1.10;;;10.60;99.90;;;;;;5033052;28;20025;-73
2023/03/25 00:21:03;;;;;;;5.78;1.17;;;10.60;99.90;;;;;;5031249;28;20029;-73
2023/03/25 00:23:30;;;;;;;5.72;1.58;;;10.60;99.90;;;;;;5036609;28;20053;-73
2023/03/25 00:25:59;;;;;;;5.72;1.45;;;10.60;99.90;;;;;;5036167;28;20021;-73
2023/03/25 00:28:30;;;;;;;7.50;1.20;;;10.60;99.90;;;;;;5039639;28;20100;-72
2023/03/25 00:31:00;;;;;;;4.43;1.60;;;10.60;99.90;;;;;;5036940;28;20429;-73
2023/03/25 00:33:27;;;;;;;4.03;1.02;;;10.60;99.90;;;;;;5045247;28;20022;-73
2023/03/25 00:35:57;;;;;;;4.38;1.25;;;10.60;99.90;;;;;;5049292;28;20482;-73
2023/03/25 00:38:32;;;;;;;6.32;1.40;;;10.60;99.90;;;;;;5042623;28;20096;-73
2023/03/25 00:41:06;;;;;;;5.43;1.35;;;10.60;99.90;;;;;;5042784;28;20478;-73
2023/03/25 00:43:32;;;;;;;9.38;1.65;;;10.60;99.90;;;;;;5026261;28;20030;-72
2023/03/25 00:45:57;;;;;;;6.10;1.40;;;10.60;99.90;;;;;;5027765;28;20149;-74
2023/03/25 00:48:23;;;;;;;8.85;1.67;;;10.60;99.90;;;;;;5042488;28;20029;-73
2023/03/25 00:50:49;;;;;;;7.43;1.00;;;10.60;99.90;;;;;;5037765;28;20021;-73
2023/03/25 00:53:14;;;;;;;5.10;1.50;;;10.60;99.90;;;;;;5045913;28;20060;-73
2023/03/25 00:55:40;;;;;;;9.45;2.05;;;10.60;99.90;;;;;;5048560;28;20902;-73
2023/03/25 00:58:05;;;;;;;7.33;2.03;;;10.60;99.90;;;;;;5043816;28;20025;-74
2023/03/25 01:00:31;;;;;;;8.65;2.20;;;10.60;99.90;;;;;;5032331;28;20041;-72
2023/03/25 01:02:57;;;;;;;4.30;1.70;;;10.60;99.90;;;;;;5028486;28;20036;-73
2023/03/25 01:05:22;;;;;;;4.78;1.55;;;10.50;99.90;;;;;;5032986;28;20138;-73
2023/03/25 01:07:48;;;;;;;8.48;1.75;;;10.60;99.90;;;;;;5033033;28;20036;-73
2023/03/25 01:10:14;;;;;;;6.95;2.55;;;10.50;99.90;;;;;;5033122;28;20064;-73
2023/03/25 01:12:39;;;;;;;7.70;2.03;;;10.60;99.90;;;;;;5034238;28;20075;-73
2023/03/25 01:15:06;;;;;;;9.70;1.92;;;10.60;99.90;;;;;;5032246;28;20425;-73
2023/03/25 01:17:31;;;;;;;9.20;2.58;;;10.60;99.90;;;;;;5032871;28;20108;-73
2023/03/25 01:19:57;;;;;;;8.68;2.53;;;10.50;99.90;;;;;;5033694;28;20113;-73
2023/03/25 01:22:22;;;;;;;10.65;1.63;;;10.50;99.90;;;;;;5033323;28;20364;-73
2023/03/25 01:24:48;;;;;;;17.55;2.42;;;10.50;99.90;;;;;;5033136;28;20037;-72
2023/03/25 01:27:14;;;;;;;8.32;1.38;;;10.50;99.90;;;;;;5033351;28;20033;-73
2023/03/25 01:29:39;;;;;;;9.05;1.73;;;10.50;99.90;;;;;;5034422;28;20076;-72
2023/03/25 01:32:05;;;;;;;10.07;2.42;;;10.50;99.90;;;;;;5051031;28;20017;-72
2023/03/25 01:34:32;;;;;;;7.22;1.35;;;10.50;99.90;;;;;;5051906;28;20025;-73
2023/03/25 01:36:58;;;;;;;5.53;1.40;;;10.50;99.90;;;;;;5045151;28;20419;-72
2023/03/25 01:39:24;;;;;;;9.00;2.40;;;10.50;99.90;;;;;;5032334;28;20486;-72
2023/03/25 01:41:50;;;;;;;6.25;2.17;;;10.60;99.90;;;;;;5032342;28;20441;-72
2023/03/25 01:44:19;;;;;;;9.13;1.48;;;10.60;99.90;;;;;;5032273;28;20025;-73
2023/03/25 01:46:48;;;;;;;8.55;1.50;;;10.50;99.90;;;;;;5032564;28;20017;-73
2023/03/25 01:49:22;;;;;;;7.93;1.58;;;10.50;99.90;;;;;;5032735;28;20022;-72
2023/03/25 01:51:53;;;;;;;7.40;1.73;;;10.60;99.90;;;;;;5032771;28;20010;-72
2023/03/25 01:54:19;;;;;;;14.05;1.77;;;10.60;99.90;;;;;;5032949;28;20040;-72
2023/03/25 01:56:47;;;;;;;5.40;2.05;;;10.50;99.90;;;;;;5032475;28;20490;-72
2023/03/25 01:59:17;;;;;;;7.97;1.30;;;10.60;99.90;;;;;;5030672;28;20021;-73
2023/03/25 02:01:45;;;;;;;9.85;1.60;;;10.50;99.90;;;;;;5031872;28;20403;-73
2023/03/25 02:04:14;;;;;;;8.43;1.38;;;10.50;99.90;;;;;;5031999;28;20041;-72
2023/03/25 02:06:51;;;;;;;6.50;1.50;;;10.50;99.90;;;;;;5032148;28;20064;-72
2023/03/25 02:09:20;;;;;;;5.65;1.33;;;10.50;99.90;;;;;;5032241;28;20424;-72
2023/03/25 02:11:46;;;;;;;8.73;1.98;;;10.50;99.90;;;;;;5032449;28;20017;-73
2023/03/25 02:14:17;;;;;;;9.60;1.50;;;10.40;99.90;;;;;;5030509;28;20034;-73
2023/03/25 02:17:02;;;;;;;19.02;2.38;;;10.50;99.90;;;;;;5027048;28;20155;-72
2023/03/25 02:20:09;;;;;;;7.15;1.50;;;10.40;99.90;;;;;;5031520;28;20033;-72
2023/03/25 02:22:57;;;;;;;13.90;2.00;;;10.40;99.90;;;;;;5031702;28;20033;-73
2023/03/25 02:25:53;;;;;;;9.48;2.30;;;10.40;99.90;;;;;;5031122;28;20483;-73
2023/03/25 02:28:47;;;;;;;9.50;2.20;;;10.40;99.90;;;;;;5031861;28;20048;-73
2023/03/25 02:31:38;;;;;;;5.93;2.10;;;10.30;99.90;;;;;;5030460;28;20057;-73
2023/03/25 02:34:22;;;;;;;4.18;1.75;;;10.30;99.90;;;;;;5021138;28;20033;-73
2023/03/25 02:37:29;;;;;;;7.50;1.60;;;10.30;99.90;;;;;;5031497;28;20052;-73
2023/03/25 02:40:13;;;;;;;7.80;2.13;;;10.30;99.90;;;;;;5031537;28;20025;-72
2023/03/25 02:42:57;;;;;;;7.30;2.03;;;10.20;99.90;;;;;;5023965;28;20053;-73
2023/03/25 02:45:32;;;;;;;8.95;2.33;;;10.20;99.90;;;;;;5038449;28;20074;-72
2023/03/25 02:48:04;;;;;;;11.63;3.45;;;10.10;99.90;;;;;;5042282;28;20036;-73
2023/03/25 02:50:35;;;;;;;7.53;2.50;;;10.10;99.90;;;;;;5031584;28;20489;-73
2023/03/25 02:53:07;;;;;;;5.03;1.90;;;10.10;99.90;;;;;;5030414;28;20052;-73
2023/03/25 02:55:34;;;;;;;8.63;2.50;;;10.10;99.90;;;;;;5031205;28;20026;-73
2023/03/25 02:58:05;;;;;;;5.07;1.90;;;10.10;99.90;;;;;;5031066;28;20033;-73
2023/03/25 03:00:31;;;;;;;6.63;1.67;;;10.10;99.90;;;;;;5030084;28;20061;-73
2023/03/25 03:03:00;;;;;;;4.50;2.20;;;10.10;99.90;;;;;;5031289;28;20033;-73
2023/03/25 03:05:29;;;;;;;5.67;2.37;;;10.00;99.90;;;;;;5031814;28;20399;-73
2023/03/25 03:08:21;;;;;;;9.52;1.95;;;10.00;99.90;;;;;;5030798;28;20775;-73
2023/03/25 03:11:05;;;;;;;4.30;1.80;;;10.00;99.90;;;;;;5030653;28;20100;-73
2023/03/25 03:13:47;;;;;;;;;;;10.00;99.90;;;;;;5030983;28;20112;-73
2023/03/25 03:16:30;;;;;;;6.15;1.90;;;9.90;99.90;;;;;;5031047;28;20385;-73
2023/03/25 03:19:14;;;;;;;8.88;2.17;;;9.90;99.90;;;;;;5031559;28;20163;-73
2023/03/25 03:22:00;;;;;;;7.78;1.55;;;9.80;99.90;;;;;;5032145;28;20496;-73
2023/03/25 03:24:39;;;;;;;6.47;2.10;;;9.80;99.90;;;;;;5029138;28;20029;-73
2023/03/25 03:27:32;;;;;;;10.17;2.37;;;9.80;99.90;;;;;;5030345;28;20026;-74
2023/03/25 03:30:07;;;;;;;4.87;1.70;;;9.80;99.90;;;;;;5033455;28;20071;-73
2023/03/25 03:32:45;;;;;;;5.22;2.13;;;9.80;99.90;;;;;;5021495;28;20126;-73
2023/03/25 03:35:26;;;;;;;6.55;2.70;;;9.80;99.90;;;;;;5046611;28;20063;-73
2023/03/25 03:37:57;;;;;;;5.93;3.20;;;9.80;99.90;;;;;;5048784;28;20025;-74
2023/03/25 03:40:26;;;;;;;7.40;2.88;;;9.80;99.90;;;;;;5028565;28;20471;-72
2023/03/25 03:43:02;;;;;;;5.25;2.47;;;9.80;99.90;;;;;;5032411;28;20025;-73
2023/03/25 03:45:38;;;;;;;7.43;2.70;;;9.80;99.90;;;;;;5050002;28;20033;-75
2023/03/25 03:48:24;;;;;;;7.35;2.33;;;9.80;99.90;;;;;;5031544;28;20048;-74
2023/03/25 03:50:55;;;;;;;9.90;2.40;;;9.80;99.90;;;;;;5029855;28;20470;-74
2023/03/25 03:53:33;;;;;;;5.30;1.93;;;9.80;99.90;;;;;;5030234;28;20018;-74
2023/03/25 03:56:15;;;;;;;8.43;2.27;;;9.80;99.90;;;;;;5029368;28;20049;-73
2023/03/25 03:58:41;;;;;;;8.25;2.30;;;9.80;99.90;;;;;;5030324;28;20481;-73
2023/03/25 04:01:32;;;;;;;9.23;3.28;;;9.80;99.90;;;;;;5029939;28;21115;-74
2023/03/25 04:04:02;;;;;;;7.07;2.30;;;9.90;99.90;;;;;;5043071;28;21412;-74
2023/03/25 04:06:40;;;;;;;8.23;2.08;;;9.80;99.90;;;;;;5039713;28;20592;-73
2023/03/25 04:09:25;;;;;;;6.93;2.50;;;9.90;99.90;;;;;;5046833;28;20028;-74
2023/03/25 04:11:55;;;;;;;9.32;2.30;;;9.90;99.90;;;;;;5048335;28;20473;-73
2023/03/25 04:14:21;;;;;;;8.25;2.08;;;9.90;99.90;;;;;;5048901;28;20032;-74
2023/03/25 04:16:46;;;;;;;12.65;2.70;;;9.90;99.90;;;;;;5038066;28;20026;-74
2023/03/25 04:19:18;;;;;;;7.38;2.35;;;9.90;99.90;;;;;;5041200;28;20033;-73
2023/03/25 04:21:46;;;;;;;10.65;2.95;;;9.90;99.90;;;;;;5038354;28;20047;-73
2023/03/25 04:24:15;;;;;;;11.73;3.05;;;9.80;99.90;;;;;;5036592;28;20100;-73
2023/03/25 04:26:42;;;;;;;6.88;1.80;;;9.80;99.90;;;;;;5032429;28;20385;-73
2023/03/25 04:29:08;;;;;;;14.20;2.90;;;9.80;99.90;;;;;;5046658;28;20495;-74
2023/03/25 04:31:34;;;;;;;9.85;2.47;;;9.80;99.90;;;;;;5042200;28;20025;-73
2023/03/25 04:34:01;;;;;;;11.05;2.80;;;9.80;99.90;;;;;;5029918;28;20378;-73
2023/03/25 04:36:32;;;;;;;12.88;3.08;;;9.80;99.90;;;;;;5029626;28;20040;-73
2023/03/25 04:38:58;;;;;;;14.75;3.15;;;9.80;99.90;;;;;;5041309;28;20025;-74
2023/03/25 04:41:24;;;;;;;8.20;2.60;;;9.80;99.90;;;;;;5051828;28;20417;-74
2023/03/25 04:43:50;;;;;;;14.50;2.85;;;9.80;99.90;;;;;;5042843;28;20108;-73
2023/03/25 04:46:16;;;;;;;7.22;2.28;;;9.80;99.90;;;;;;5033353;28;20120;-74
2023/03/25 04:48:43;;;;;;;11.20;2.80;;;9.80;99.90;;;;;;5038807;28;20490;-74
2023/03/25 04:51:11;;;;;;;12.53;2.77;;;9.80;99.90;;;;;;5049718;28;20108;-74
2023/03/25 04:53:37;;;;;;;12.30;2.93;;;9.80;99.90;;;;;;5044831;28;20021;-74
2023/03/25 04:56:04;;;;;;;12.40;3.55;;;9.80;99.90;;;;;;5042036;28;20064;-74
2023/03/25 04:58:30;;;;;;;13.05;2.75;;;9.80;99.90;;;;;;5043130;28;20033;-74
2023/03/25 05:00:56;;;;;;;13.47;2.20;;;9.80;99.90;;;;;;5039686;28;20123;-72
2023/03/25 05:03:24;;;;;;;10.88;2.28;;;9.80;99.90;;;;;;5044316;28;20473;-72
2023/03/25 05:05:51;;;;;;;10.50;1.95;;;9.80;99.90;;;;;;5039965;28;20037;-73
2023/03/25 05:08:17;;;;;;;10.27;2.17;;;9.90;99.90;;;;;;5043074;28;20025;-72
2023/03/25 05:10:43;;;;;;;8.68;2.42;;;9.80;99.90;;;;;;5051005;28;20021;-72
2023/03/25 05:13:09;;;;;;;6.72;2.33;;;9.90;99.90;;;;;;5040735;28;20038;-72
2023/03/25 05:15:38;;;;;;;7.65;1.95;;;9.90;99.90;;;;;;5045709;28;20036;-73
2023/03/25 05:18:14;;;;;;;10.93;3.13;;;9.90;99.90;;;;;;5042481;28;20074;-72
2023/03/25 05:20:42;;;;;;;10.95;2.38;;;9.90;99.90;;;;;;5021081;28;20109;-72
2023/03/25 05:23:11;;;;;;;11.65;2.67;;;9.90;99.90;;;;;;5045787;28;20378;-73
2023/03/25 05:25:38;;;;;;;10.27;2.72;;;9.90;99.90;;;;;;5024083;28;20037;-72
2023/03/25 05:28:04;;;;;;;11.93;3.33;;;9.90;99.90;;;;;;5032356;28;20383;-73
2023/03/25 05:30:32;;;;;;;8.07;1.95;;;9.90;99.90;;;;;;5040581;28;20108;-72
2023/03/25 05:32:58;;;;;;;6.88;2.47;;;10.00;99.90;;;;;;5038317;28;20483;-73
2023/03/25 05:35:25;;;;;;;8.23;2.65;;;10.00;99.90;;;;;;5052036;28;20025;-73
2023/03/25 05:37:51;;;;;;;11.63;3.22;;;10.00;99.90;;;;;;5051051;28;20095;-73
2023/03/25 05:40:17;;;;;;;7.57;2.35;;;10.00;99.90;;;;;;5052424;28;20096;-73
2023/03/25 05:42:47;;;;;;;9.73;2.55;;;9.90;99.90;;;;;;5051652;28;20095;-73
2023/03/25 05:45:14;;;;;;;8.45;1.63;;;9.90;99.90;;;;;;5037520;28;20018;-74
2023/03/25 05:47:40;;;;;;;6.43;2.30;;;9.90;99.90;;;;;;5047527;28;20032;-74
2023/03/25 05:50:07;;;;;;;8.27;1.80;;;9.90;99.90;;;;;;5043034;28;20490;-73
2023/03/25 05:52:33;;;;;;;7.70;2.60;;;9.90;99.90;;;;;;5032082;28;20514;-74
2023/03/25 05:54:58;;;;;;;5.82;2.40;;;9.90;99.90;;;;;;5032020;28;20120;-74
2023/03/25 05:57:24;;;;;;;8.73;3.65;;;9.90;99.90;;;;;;5030784;28;20470;-74
2023/03/25 05:59:50;;;;;;;5.43;2.95;;;9.90;99.90;;;;;;5030805;28;20022;-75
2023/03/25 06:02:16;;;;;;;10.57;3.50;;;9.90;99.90;;;;;;5032089;28;20045;-74
2023/03/25 06:04:42;;;;;;;5.53;2.28;;;9.90;99.90;;;;;;5032227;28;20041;-73
2023/03/25 06:07:12;;;;;;;11.63;3.00;;;9.90;99.90;;;;;;5031175;28;20064;-74
2023/03/25 06:09:44;;;;;;;12.03;3.37;;;9.80;99.90;;;;;;5032058;28;20025;-74
2023/03/25 06:12:14;;;;;;;9.23;4.47;;;9.90;99.90;;;;;;5027918;28;20017;-74
2023/03/25 06:14:44;;;;;;;10.00;2.47;;;9.80;99.90;;;;;;5023338;28;20095;-73
2023/03/25 06:17:11;;;;;;;7.07;2.70;;;9.90;99.90;;;;;;5032998;28;20013;-74
2023/03/25 06:19:37;;;;;;;8.23;3.40;;;9.80;99.90;;;;;;5030585;28;20044;-73
2023/03/25 06:22:05;;;;;;;16.13;4.15;;;9.90;99.90;;;;;;5032902;28;20044;-74
2023/03/25 06:24:31;;;;;;;9.05;2.97;;;9.90;99.90;;;;;;5031680;28;20034;-74
2023/03/25 06:26:56;;;;;;;11.60;3.70;;;9.90;99.90;;;;;;5032016;28;20029;-73
2023/03/25 06:29:22;;;;;;;10.30;3.50;;;9.80;99.90;;;;;;5032049;28;20382;-73
2023/03/25 06:31:47;;;;;;;6.45;3.67;;;9.80;99.90;;;;;;5041697;28;20085;-73
2023/03/25 06:34:13;;;;;;;15.73;4.93;;;9.80;99.90;;;;;;5044711;28;20025;-73
2023/03/25 06:36:38;;;;;;;11.48;3.83;;;9.90;99.90;;;;;;5044339;28;20104;-73
2023/03/25 06:39:04;;;;;;;10.98;3.92;;;9.90;99.90;;;;;;5026901;28;20061;-73
2023/03/25 06:41:30;;;;;;;15.35;4.03;;;9.90;99.90;;;;;;5029548;28;20029;-73
2023/03/25 06:43:56;;;;;;;11.90;3.63;;;10.00;99.90;;;;;;5028374;28;20026;-73
2023/03/25 06:46:21;;;;;;;12.18;4.07;;;10.00;99.90;;;;;;5039657;28;20473;-74
2023/03/25 06:48:47;;;;;;;11.82;3.60;;;10.00;99.90;;;;;;5038734;28;20526;-74
2023/03/25 06:51:13;;;;;;;12.73;4.03;;;10.00;99.90;;;;;;5034547;28;20021;-74
2023/03/25 06:53:39;;;;;;;17.63;3.60;;;10.00;99.90;;;;;;5032060;28;20442;-73
2023/03/25 06:56:05;;;;;;;10.55;3.58;;;10.00;99.90;;;;;;5033430;28;20032;-74
2023/03/25 06:58:33;;;;;;;8.13;3.17;;;10.00;99.90;;;;;;5028973;28;20040;-74
2023/03/25 07:01:02;;;;;;;8.98;3.00;;;10.10;99.90;;;;;;5030994;28;20052;-74
2023/03/25 07:03:29;;;;;;;14.65;3.45;;;10.10;99.90;;;;;;5032198;28;20060;-73
2023/03/25 07:05:54;;;;;;;12.13;3.03;;;10.00;99.90;;;;;;5034015;28;20036;-73
2023/03/25 07:08:20;;;;;;;11.73;2.92;;;10.10;99.90;;;;;;5032621;28;20479;-73
2023/03/25 07:10:45;;;;;;;12.65;2.95;;;10.10;99.90;;;;;;5033733;28;20018;-73
2023/03/25 07:13:11;;;;;;;14.57;2.92;;;10.20;99.90;;;;;;5031831;28;20108;-73
2023/03/25 07:15:37;;;;;;;8.63;2.42;;;10.30;99.90;;;;;;5032631;28;20064;-73
2023/03/25 07:18:02;;;;;;;9.38;4.10;;;10.30;99.90;;;;;;5030880;28;20447;-73
2023/03/25 07:20:28;;;;;;;14.23;2.97;;;10.30;99.90;;;;;;5032914;28;20029;-73
2023/03/25 07:22:54;;;;;;;13.43;2.53;;;10.40;99.90;;;;;;5029174;28;20029;-73
2023/03/25 07:25:21;;;;;;;18.60;3.03;;;10.40;99.90;;;;;;5033410;28;20053;-73
2023/03/25 07:27:46;;;;;;;13.15;2.90;;;10.40;99.90;;;;;;5030338;28;20555;-73
2023/03/25 07:30:12;;;;;;;13.40;3.00;;;10.40;99.90;;;;;;5036578;28;20131;-73
2023/03/25 07:32:38;;;;;;;15.75;3.63;;;10.40;99.90;;;;;;5032025;28;20018;-73
2023/03/25 07:35:05;;;;;;;15.43;4.03;;;10.20;99.90;;;;;;5030319;28;20057;-74
2023/03/25 07:37:30;;;;;;;16.48;4.03;;;10.20;99.90;;;;;;5029084;28;20116;-73
2023/03/25 07:39:56;;;;;;;13.30;3.25;;;10.20;99.90;;;;;;5030333;28;20120;-73
2023/03/25 07:42:22;;;;;;;14.43;3.58;;;10.20;99.90;;;;;;5029105;28;20113;-73
2023/03/25 07:44:47;;;;;;;8.23;3.28;;;10.20;99.90;;;;;;5030224;28;20028;-74
2023/03/25 07:47:13;;;;;;;18.05;3.95;;;10.20;99.90;;;;;;5029875;28;20474;-73
2023/03/25 07:49:42;;;;;;;11.48;3.25;;;10.30;99.90;;;;;;5030372;28;20356;-74
2023/03/25 07:52:08;;;;;;;14.20;4.10;;;10.30;99.90;;;;;;5028970;28;20080;-74
2023/03/25 07:54:34;;;;;;;12.30;3.58;;;10.20;99.90;;;;;;5030047;28;20021;-74
2023/03/25 07:57:00;;;;;;;16.95;5.65;;;10.20;99.90;;;;;;5042093;28;20036;-73
2023/03/25 07:59:26;;;;;;;12.18;4.10;;;10.20;99.90;;;;;;5032276;28;20128;-73
2023/03/25 08:01:51;;;;;;;16.60;4.60;;;10.30;99.90;;;;;;5029089;28;20045;-73
2023/03/25 08:04:17;;;;;;;14.23;3.95;;;10.30;99.90;;;;;;5030765;28;20037;-74
2023/03/25 08:06:43;;;;;;;15.90;4.07;;;10.30;99.90;;;;;;5029688;28;20116;-74
2023/03/25 08:09:09;;;;;;;17.95;4.90;;;10.20;99.90;;;;;;5030271;28;20029;-74
2023/03/25 08:11:34;;;;;;;12.47;3.80;;;10.20;99.90;;;;;;5030309;28;20018;-73
2023/03/25 08:14:00;;;;;;;13.80;3.88;;;10.10;99.90;;;;;;5032277;28;20028;-73
2023/03/25 08:16:26;;;;;;;12.65;3.78;;;10.00;99.90;;;;;;5034518;28;20033;-73
2023/03/25 08:18:51;;;;;;;14.20;4.13;;;10.00;99.90;;;;;;5035387;28;20470;-73
2023/03/25 08:21:23;;;;;;;14.75;3.80;;;10.00;99.90;;;;;;5034899;28;20107;-74
2023/03/25 08:23:51;;;;;;;12.65;3.33;;;10.10;99.90;;;;;;5034809;28;20026;-73
2023/03/25 08:26:16;;;;;;;11.52;3.53;;;10.20;99.90;;;;;;5034575;28;20029;-73
2023/03/25 08:28:42;;;;;;;17.63;3.97;;;10.30;99.90;;;;;;5033679;28;20030;-74
2023/03/25 08:31:08;;;;;;;11.48;3.97;;;10.50;99.90;;;;;;5035954;28;20124;-73
2023/03/25 08:33:38;;;;;;;22.95;4.22;;;10.70;99.90;;;;;;5042322;28;20020;-73
2023/03/25 08:36:04;;;;;;;14.32;3.17;;;10.80;99.90;;;;;;5046402;28;20021;-74
2023/03/25 08:38:30;;;;;;;15.55;2.95;;;10.90;99.90;;;;;;5035549;28;20048;-74
2023/03/25 08:40:59;;;;;;;15.90;3.45;;;10.90;99.90;;;;;;5033833;28;20021;-73
2023/03/25 08:43:25;;;;;;;15.23;3.53;;;10.90;99.90;;;;;;5052370;28;20429;-74
2023/03/25 08:45:52;;;;;;;13.02;2.58;;;11.00;99.90;;;;;;5045819;28;20040;-74
2023/03/25 08:48:17;;;;;;;20.85;3.75;;;10.90;99.90;;;;;;5046477;28;20025;-74
2023/03/25 08:50:43;;;;;;;13.60;3.80;;;10.90;99.90;;;;;;5033100;28;20390;-73
2023/03/25 08:53:09;;;;;;;16.27;3.50;;;10.80;99.90;;;;;;5048732;28;20542;-74
2023/03/25 08:55:36;;;;;;;11.02;4.32;;;10.80;99.90;;;;;;5038797;28;20025;-73
2023/03/25 08:58:02;;;;;;;21.92;4.13;;;10.80;99.90;;;;;;5032897;28;20025;-73
2023/03/25 09:00:29;;;;;;;16.55;3.65;;;10.80;99.90;;;;;;5031138;28;20072;-73
2023/03/25 09:02:57;;;;;;;17.42;3.85;;;10.90;99.90;;;;;;5039755;28;20466;-73
2023/03/25 09:05:24;;;;;;;21.38;2.88;;;10.80;99.90;;;;;;5049649;28;20032;-71
2023/03/25 09:07:49;;;;;;;18.50;3.53;;;10.90;99.90;;;;;;5038892;28;20491;-71
2023/03/25 09:10:15;;;;;;;12.88;3.53;;;10.80;99.90;;;;;;5033205;28;20128;-71
2023/03/25 09:12:41;;;;;;;22.63;4.13;;;10.80;99.90;;;;;;5027167;28;20064;-71
2023/03/25 09:15:08;;;;;;;21.80;3.72;;;10.90;99.90;;;;;;5034711;28;20036;-71
2023/03/25 09:17:33;;;;;;;17.98;2.30;;;11.00;99.90;;;;;;5035078;28;20024;-71
2023/03/25 09:19:59;;;;;;;12.40;2.90;;;11.00;99.90;;;;;;5033032;28;20029;-71
2023/03/25 09:22:24;;;;;;;14.60;3.03;;;11.00;99.90;;;;;;5038016;28;20021;-71
2023/03/25 09:24:50;;;;;;;17.80;4.20;;;11.10;99.90;;;;;;5033336;28;20037;-71
2023/03/25 09:27:16;;;;;;;15.68;2.72;;;11.20;99.90;;;;;;5043227;28;20028;-72
2023/03/25 09:29:41;;;;;;;16.02;3.13;;;11.10;99.90;;;;;;5044389;28;20434;-72
2023/03/25 09:32:08;;;;;;;14.90;3.35;;;11.10;99.90;;;;;;5038049;28;20079;-72
2023/03/25 09:34:33;;;;;;;18.20;3.25;;;11.10;99.90;;;;;;5035094;28;20025;-72
2023/03/25 09:37:00;;;;;;;13.55;2.88;;;11.10;99.90;;;;;;5036413;28;20033;-72
2023/03/25 09:39:26;;;;;;;14.38;3.55;;;11.10;99.90;;;;;;5046293;28;20444;-71
2023/03/25 09:42:12;;;;;;;24.65;5.00;;;11.10;99.90;;;;;;5051550;28;20043;-72
2023/03/25 09:44:51;;;;;;;16.98;4.20;;;11.30;99.90;;;;;;5050572;28;20075;-71
2023/03/25 09:47:20;;;;;;;16.38;4.85;;;11.50;99.90;;;;;;5052218;28;20592;-72
2023/03/25 09:49:52;;;;;;;18.95;3.92;;;11.70;99.90;;;;;;5050426;28;20108;-72
2023/03/25 09:52:23;;;;;;;15.68;4.10;;;11.70;99.90;;;;;;5039327;28;20026;-72
2023/03/25 09:54:56;;;;;;;18.60;3.35;;;11.70;99.90;;;;;;5032269;28;20017;-72
2023/03/25 09:57:26;;;;;;;15.23;4.10;;;11.60;99.90;;;;;;5045997;28;20500;-72
2023/03/25 09:59:53;;;;;;;12.52;3.88;;;11.60;99.90;;;;;;5043433;28;20033;-72
2023/03/25 10:02:39;;;;;;;17.88;3.90;;;11.60;99.90;;;;;;5031907;28;20049;-72
2023/03/25 10:05:10;;;;;;;15.88;3.17;;;11.60;99.90;;;;;;5032180;28;20018;-72
2023/03/25 10:07:55;;;;;;;16.88;3.35;;;11.60;99.90;;;;;;5031776;28;20517;-72
2023/03/25 10:10:30;;;;;;;15.85;3.67;;;11.60;99.90;;;;;;5032286;28;20116;-72
2023/03/25 10:13:31;;;;;;;13.38;2.40;;;11.70;99.90;;;;;;5031060;28;20018;-72
2023/03/25 10:16:18;;;;;;;18.33;4.75;;;11.80;99.90;;;;;;4970630;28;20094;-72
2023/03/25 10:19:04;;;;;;;21.50;3.85;;;11.90;99.90;;;;;;4971444;28;20027;-72
2023/03/25 10:22:10;;;;;;;17.23;3.13;;;11.80;99.90;;;;;;4971107;28;20572;-72
2023/03/25 10:24:43;;;;;;;20.90;4.28;;;11.80;99.90;;;;;;4964130;28;20054;-72
2023/03/25 10:27:22;;;;;;;20.53;4.10;;;11.70;99.90;;;;;;4970459;28;20126;-72
2023/03/25 10:29:53;;;;;;;22.65;4.47;;;11.70;99.90;;;;;;4973225;28;20763;-72
2023/03/25 10:32:33;;;;;;;20.15;2.92;;;11.70;99.90;;;;;;4965118;28;20041;-72
2023/03/25 10:35:02;;;;;;;21.17;4.05;;;11.70;99.90;;;;;;4986734;28;20062;-72
2023/03/25 10:37:32;;;;;;;18.95;3.03;;;11.60;99.90;;;;;;4978099;28;20031;-72
2023/03/25 10:40:32;;;;;;;20.23;4.57;;;11.50;99.90;;;;;;4970339;28;20444;-72
2023/03/25 10:43:10;;;;;;;21.13;4.53;;;11.40;99.90;;;;;;4970865;28;20034;-72
2023/03/25 10:45:38;;;;;;;18.83;4.65;;;11.40;99.90;;;;;;4970211;28;20046;-72
2023/03/25 10:48:16;;;;;;;19.52;4.20;;;11.50;99.90;;;;;;4958625;28;20049;-72
2023/03/25 10:50:42;;;;;;;19.50;4.05;;;11.50;99.90;;;;;;4979945;28;20038;-72
2023/03/25 10:53:21;;;;;;;12.68;3.22;;;11.40;99.90;;;;;;5026012;28;20043;-73
2023/03/25 10:55:52;;;;;;;20.67;3.55;;;11.20;99.90;;;;;;5049260;28;20448;-72
2023/03/25 10:58:18;;;;;;;23.55;5.53;;;11.00;99.90;;;;;;5050139;28;20024;-72
2023/03/25 11:00:44;;;;;;;21.55;5.38;;;10.90;99.90;;;;;;5050173;28;20061;-72
2023/03/25 11:03:19;;;;;;;17.88;4.60;;;11.00;99.90;;;;;;5049617;28;20450;-73
2023/03/25 11:05:46;;;;;;;24.10;3.30;;;11.20;99.90;;;;;;5050396;28;20056;-73
2023/03/25 11:08:14;;;;;;;24.10;4.05;;;11.20;99.90;;;;;;5050070;28;20104;-72
2023/03/25 11:10:45;;;;;;;23.85;4.60;;;11.30;99.90;;;;;;5027306;28;20134;-72
2023/03/25 11:13:13;;;;;;;18.58;3.50;;;11.30;99.90;;;;;;5032139;28;20658;-73
2023/03/25 11:15:40;;;;;;;25.92;3.55;;;11.50;99.90;;;;;;5040035;28;20568;-72
2023/03/25 11:18:29;;;;;;;17.25;3.83;;;11.40;99.90;;;;;;5037219;28;20029;-71
2023/03/25 11:21:04;;;;;;;13.82;3.10;;;11.40;99.90;;;;;;5039237;28;20040;-72
2023/03/25 11:23:35;;;;;;;18.75;4.07;;;11.20;99.90;;;;;;5044957;28;20040;-72
2023/03/25 11:26:16;;;;;;;18.80;3.28;;;11.20;99.90;;;;;;5048401;28;20021;-72
2023/03/25 11:28:52;;;;;;;28.83;3.97;;;11.20;99.90;;;;;;5049636;28;20028;-72
2023/03/25 11:31:20;;;;;;;18.88;3.50;;;11.30;99.90;;;;;;5050623;28;20724;-71
2023/03/25 11:34:09;;;;;;;28.13;3.45;;;11.50;99.90;;;;;;5048282;28;20545;-72
2023/03/25 11:36:38;;;;;;;18.77;3.58;;;11.70;99.90;;;;;;5049355;28;20076;-72
2023/03/25 11:39:23;;;;;;;13.43;3.65;;;12.00;99.90;;;;;;5017655;28;20100;-72
2023/03/25 11:41:50;;;;;;;14.85;3.40;;;12.30;99.90;;;;;;5033622;28;20033;-71
2023/03/25 11:44:49;;;;;;;20.20;3.20;;;12.50;99.90;;;;;;5045462;28;20477;-71
2023/03/25 11:47:21;;;;;;;12.23;2.05;;;12.60;99.90;;;;;;5048307;28;20028;-72
2023/03/25 11:49:48;;;;;;;12.85;2.05;;;12.50;99.90;;;;;;5030148;28;20577;-72
2023/03/25 11:52:20;;;;;;;16.27;2.58;;;12.50;99.90;;;;;;5028924;28;20021;-71
2023/03/25 11:54:46;;;;;;;10.90;1.95;;;12.40;99.90;;;;;;5031794;28;20045;-71
2023/03/25 11:57:17;;;;;;;10.45;1.83;;;12.20;99.90;;;;;;5036235;28;20034;-71
2023/03/25 11:59:45;;;;;;;8.65;1.90;;;12.20;99.90;;;;;;5031655;28;20084;-71
2023/03/25 12:02:23;;;;;;;16.40;2.30;;;12.30;99.90;;;;;;5036403;28;20052;-71
2023/03/25 12:04:58;;;;;;;11.80;2.88;;;12.30;99.90;;;;;;5025213;28;20061;-71
2023/03/25 12:07:23;;;;;;;12.85;2.25;;;12.40;99.90;;;;;;5035332;28;20025;-71
2023/03/25 12:10:02;;;;;;;12.23;2.67;;;12.60;99.90;;;;;;5027677;28;20099;-71
2023/03/25 12:12:51;;;;;;;8.75;1.85;;;12.70;99.90;;;;;;5034548;28;20489;-71
2023/03/25 12:15:40;;;;;;;12.27;3.25;;;12.80;99.90;;;;;;5035897;28;20025;-72
2023/03/25 12:18:46;;;;;;;18.13;2.70;;;12.80;99.90;;;;;;5029849;28;20041;-72
2023/03/25 12:21:28;;;;;;;9.93;2.00;;;12.90;99.90;;;;;;5025875;28;20021;-71
2023/03/25 12:24:38;;;;;;;11.65;3.05;;;12.90;99.90;;;;;;5025952;28;20123;-71
2023/03/25 12:27:27;;;;;;;19.02;3.63;;;12.90;99.90;;;;;;5043063;28;20029;-71
2023/03/25 12:30:16;;;;;;;12.05;2.22;;;13.00;99.90;;;;;;5037451;28;20025;-71
2023/03/25 12:32:51;;;;;;;10.98;2.20;;;13.00;99.90;;;;;;4996002;28;20064;-72
2023/03/25 12:35:37;;;;;;;10.30;2.13;;;13.10;99.90;;;;;;5029463;28;20029;-71
2023/03/25 12:38:09;;;;;;;12.52;1.83;;;13.20;99.90;;;;;;5036250;28;20030;-71
2023/03/25 12:40:50;;;;;;;9.13;2.13;;;13.30;99.90;;;;;;5042147;28;20479;-71
2023/03/25 12:43:36;;;;;;;12.32;2.70;;;13.50;99.90;;;;;;5041998;28;20363;-71
2023/03/25 12:46:10;;;;;;;15.23;2.40;;;13.60;99.90;;;;;;5036799;28;20026;-71
2023/03/25 12:49:41;;;;;;;11.77;2.45;;;13.70;99.90;;;;;;5036305;28;20014;-71
2023/03/25 12:52:32;;;;;;;10.38;1.75;;;13.60;99.90;;;;;;4895756;29;20782;-72
2023/03/25 12:55:23;;;;;;;11.85;1.58;;;13.30;99.90;;;;;;4887900;29;20116;-72
2023/03/25 12:58:31;;;;;;;5.97;0.98;;;12.70;99.90;;;;;;4896220;29;20047;-72
2023/03/25 13:01:33;;;;;;;5.35;1.10;;;11.80;99.90;;;;;;4903269;29;20141;-72
2023/03/25 13:04:17;;;;;;;17.30;3.67;;;11.00;99.90;;;;;;4901672;29;20043;-73
2023/03/25 13:07:01;;;;;;;11.40;1.80;;;10.60;99.90;;;;;;4891114;29;20044;-73